createdAt,value
2022-07-30T00:09:49.247Z,20.6
2022-07-30T00:24:12.760Z,20
2022-07-30T00:38:39.448Z,19.9
2022-07-30T00:53:05.376Z,19.7
2022-07-30T01:07:32.988Z,19.3
2022-07-30T01:22:01.398Z,19.1
2022-07-30T01:36:28.735Z,18.7
2022-07-30T01:50:55.970Z,18.7
2022-07-30T02:05:22.987Z,18.2
2022-07-30T02:19:50.727Z,18.3
2022-07-30T02:34:19.008Z,18.2
2022-07-30T02:48:46.409Z,17.7
2022-07-30T03:03:16.267Z,17.7
2022-07-30T03:17:43.591Z,17.5
2022-07-30T03:32:17.038Z,17.4
2022-07-30T03:46:51.420Z,17
2022-07-30T04:01:14.567Z,17.3
2022-07-30T04:16:05.296Z,17.1
2022-07-30T04:30:45.559Z,17.1
2022-07-30T04:45:13.868Z,17
2022-07-30T04:59:46.551Z,16.8
2022-07-30T05:14:18.338Z,17.1
2022-07-30T05:28:42.939Z,17.3
2022-07-30T05:43:16.697Z,17.5
2022-07-30T05:57:45.333Z,18
2022-07-30T06:12:14.315Z,18
2022-07-30T06:26:43.542Z,18.4
2022-07-30T06:41:12.201Z,18.8
2022-07-30T06:55:47.657Z,19.1
2022-07-30T07:10:17.543Z,19.5
2022-07-30T07:24:41.963Z,19.9
2022-07-30T07:39:17.331Z,22.5
2022-07-30T07:54:18.884Z,25.5
2022-07-30T08:08:37.200Z,25.1
2022-07-30T08:23:08.561Z,25.9
2022-07-30T08:37:37.540Z,26.1
2022-07-30T08:52:05.048Z,25
2022-07-30T09:06:31.856Z,27
2022-07-30T09:20:55.067Z,26.9
2022-07-30T09:35:22.112Z,26.3
2022-07-30T09:49:47.088Z,26.1
2022-07-30T10:04:15.867Z,25.9
2022-07-30T10:18:44.416Z,26.9
2022-07-30T10:33:34.345Z,26.1
2022-07-30T10:47:51.252Z,26.9
2022-07-30T11:02:18.552Z,26.1
2022-07-30T11:16:47.774Z,26.6
2022-07-30T11:31:14.337Z,27.4
2022-07-30T11:45:38.075Z,25.9
2022-07-30T12:00:06.265Z,27.5
2022-07-30T12:14:35.513Z,27.6
2022-07-30T12:29:04.387Z,26.9
2022-07-30T12:43:30.868Z,26.9
2022-07-30T12:58:00.719Z,26.6
2022-07-30T13:12:30.567Z,26.8
2022-07-30T13:26:57.293Z,27
2022-07-30T13:41:25.804Z,27.2
2022-07-30T13:55:52.450Z,27.6
2022-07-30T14:10:21.694Z,27.7
2022-07-30T14:24:48.346Z,27.8
2022-07-30T14:39:16.091Z,26.9
2022-07-30T14:53:42.779Z,26.1
2022-07-30T15:08:11.113Z,26.4
2022-07-30T15:22:39.718Z,26.4
2022-07-30T15:37:08.662Z,27
2022-07-30T15:51:35.818Z,26.7
2022-07-30T16:06:03.290Z,27
2022-07-30T16:20:31.201Z,27
2022-07-30T16:34:57.533Z,26.6
2022-07-30T16:49:25.135Z,27.1
2022-07-30T17:03:51.985Z,26.6
2022-07-30T17:18:19.801Z,26.7
2022-07-30T17:32:47.373Z,26.4
2022-07-30T17:47:16.388Z,26
2022-07-30T18:01:41.559Z,25.6
2022-07-30T18:16:08.908Z,25.5
2022-07-30T18:30:35.894Z,25.5
2022-07-30T18:45:03.674Z,25.2
2022-07-30T18:59:30.569Z,24.8
2022-07-30T19:13:58.176Z,24.9
2022-07-30T19:28:25.932Z,25.1
2022-07-30T19:42:55.645Z,24.7
2022-07-30T19:57:21.144Z,24.3
2022-07-30T20:11:48.242Z,24.1
2022-07-30T20:26:15.572Z,24
2022-07-30T20:40:42.439Z,23.7
2022-07-30T20:55:09.154Z,23.3
2022-07-30T21:09:49.580Z,23.4
2022-07-30T21:24:12.189Z,23.4
2022-07-30T21:38:41.738Z,22.7
2022-07-30T21:53:08.640Z,23.1
2022-07-30T22:07:35.530Z,22.9
2022-07-30T22:22:05.304Z,22.8
2022-07-30T22:36:47.064Z,22.8
2022-07-30T22:51:14.403Z,22.3
2022-07-30T23:05:40.976Z,22.1
2022-07-30T23:20:14.138Z,22.1
2022-07-30T23:34:41.965Z,21.9
2022-07-30T23:49:09.956Z,21.7
